createdAt,value
2017-08-29T00:01:02.317Z,978.47
2017-08-29T00:02:12.593Z,978.46
2017-08-29T00:03:22.543Z,978.41
2017-08-29T00:04:32.493Z,978.47
2017-08-29T00:05:42.762Z,978.45
2017-08-29T00:06:53.041Z,978.48
2017-08-29T00:08:03.311Z,978.44
2017-08-29T00:09:13.268Z,978.42
2017-08-29T00:10:23.216Z,978.42
2017-08-29T00:11:33.484Z,978.36
2017-08-29T00:12:43.431Z,978.36
2017-08-29T00:13:53.704Z,978.38
2017-08-29T00:15:03.654Z,978.36
2017-08-29T00:16:13.281Z,978.34
2017-08-29T00:17:23.588Z,978.35
2017-08-29T00:18:33.858Z,978.36
2017-08-29T00:19:44.137Z,978.35
2017-08-29T00:20:53.784Z,978.31
2017-08-29T00:22:04.053Z,978.32
2017-08-29T00:23:14.323Z,978.34
2017-08-29T00:24:24.271Z,978.35
2017-08-29T00:25:34.219Z,978.33
2017-08-29T00:26:44.490Z,978.33
2017-08-29T00:27:54.765Z,978.33
2017-08-29T00:29:05.036Z,978.35
2017-08-29T00:30:15.307Z,978.38
2017-08-29T00:31:25.261Z,978.37
2017-08-29T00:32:35.534Z,978.4
2017-08-29T00:33:45.804Z,978.43
2017-08-29T00:34:56.074Z,978.45
2017-08-29T00:36:06.024Z,978.37
2017-08-29T00:37:15.981Z,978.34
2017-08-29T00:38:25.929Z,978.28
2017-08-29T00:39:36.204Z,978.24
2017-08-29T00:40:46.481Z,978.1
2017-08-29T00:41:56.756Z,978.06
2017-08-29T00:43:07.026Z,978.17
2017-08-29T00:44:17.363Z,978.16
2017-08-29T00:45:27.312Z,978.19
2017-08-29T00:46:36.939Z,978.13
2017-08-29T00:47:47.210Z,978.11
2017-08-29T00:48:57.481Z,978.05
2017-08-29T00:50:07.107Z,978
2017-08-29T00:51:17.378Z,978.01
2017-08-29T00:52:27.006Z,978.03
2017-08-29T00:53:37.277Z,978.05
2017-08-29T00:54:47.550Z,978.07
2017-08-29T00:55:57.498Z,978.03
2017-08-29T00:57:07.463Z,978.07
2017-08-29T00:58:17.738Z,977.96
2017-08-29T00:59:27.691Z,977.92
2017-08-29T01:00:37.644Z,977.92
2017-08-29T01:01:47.598Z,977.99
2017-08-29T01:02:57.878Z,978.02
2017-08-29T01:04:08.152Z,978.02
2017-08-29T01:05:18.423Z,977.99
2017-08-29T01:06:28.691Z,978.01
2017-08-29T01:07:38.641Z,977.95
2017-08-29T01:08:48.909Z,977.97
2017-08-29T01:10:00.859Z,978.01
2017-08-29T01:11:10.808Z,978.04
2017-08-29T01:12:21.084Z,978.04
2017-08-29T01:13:31.359Z,978.03
2017-08-29T01:14:41.639Z,977.95
2017-08-29T01:15:51.906Z,977.93
2017-08-29T01:17:02.179Z,977.89
2017-08-29T01:18:12.449Z,977.87
2017-08-29T01:19:22.730Z,977.82
2017-08-29T01:20:32.686Z,977.82
2017-08-29T01:21:42.636Z,977.79
2017-08-29T01:22:52.917Z,977.81
2017-08-29T01:24:02.869Z,977.85
2017-08-29T01:25:13.147Z,977.89
2017-08-29T01:26:23.421Z,977.82
2017-08-29T01:27:33.689Z,977.83
2017-08-29T01:28:43.972Z,977.82
2017-08-29T01:29:54.243Z,977.71
2017-08-29T01:31:04.514Z,977.65
2017-08-29T01:32:14.783Z,977.56
2017-08-29T01:33:25.058Z,977.53
2017-08-29T01:34:35.327Z,977.53
2017-08-29T01:35:45.597Z,977.53
2017-08-29T01:36:55.231Z,977.55
2017-08-29T01:38:05.180Z,977.52
2017-08-29T01:39:14.813Z,977.45
2017-08-29T01:40:24.761Z,977.42
2017-08-29T01:41:35.032Z,977.4
2017-08-29T01:42:45.304Z,977.34
2017-08-29T01:43:55.576Z,977.33
2017-08-29T01:45:05.527Z,977.31
2017-08-29T01:46:15.483Z,977.22
2017-08-29T01:47:25.758Z,977.2
2017-08-29T01:48:36.029Z,977.21
2017-08-29T01:49:46.298Z,977.3
2017-08-29T01:50:56.567Z,977.38
2017-08-29T01:52:06.522Z,977.38
2017-08-29T01:53:16.794Z,977.26
2017-08-29T01:54:27.108Z,977.28
2017-08-29T01:55:37.379Z,977.19
2017-08-29T01:56:47.849Z,977.26
2017-08-29T01:57:57.798Z,977.25
2017-08-29T01:59:08.091Z,977.27
2017-08-29T02:00:17.716Z,977.26
2017-08-29T02:01:27.988Z,977.25
2017-08-29T02:02:38.257Z,977.24
2017-08-29T02:03:48.527Z,977.28
2017-08-29T02:04:58.804Z,977.32
2017-08-29T02:06:08.750Z,977.35
2017-08-29T02:07:18.698Z,977.36
2017-08-29T02:08:28.966Z,977.33
2017-08-29T02:09:38.592Z,977.31
2017-08-29T02:10:48.542Z,977.31
2017-08-29T02:11:58.172Z,977.31
2017-08-29T02:13:07.478Z,977.27
2017-08-29T02:14:17.750Z,977.2
2017-08-29T02:15:28.018Z,977.2
2017-08-29T02:16:38.289Z,977.15
2017-08-29T02:17:48.557Z,977.26
2017-08-29T02:18:58.834Z,977.23
2017-08-29T02:20:08.144Z,977.33
2017-08-29T02:21:18.419Z,977.35
2017-08-29T02:22:28.688Z,977.23
2017-08-29T02:23:38.965Z,977.15
2017-08-29T02:24:49.237Z,977.11
2017-08-29T02:25:59.184Z,977.19
2017-08-29T02:27:09.455Z,977.2
2017-08-29T02:28:19.724Z,977.33
2017-08-29T02:29:29.716Z,977.18
2017-08-29T02:30:39.989Z,977.11
2017-08-29T02:31:49.660Z,977.06
2017-08-29T02:32:59.930Z,977.1
2017-08-29T02:34:10.202Z,977.09
2017-08-29T02:35:20.161Z,977.05
2017-08-29T02:36:30.111Z,977.02
2017-08-29T02:37:40.069Z,977.05
2017-08-29T02:38:50.340Z,977.09
2017-08-29T02:40:00.295Z,977.15
2017-08-29T02:41:09.927Z,977.1
2017-08-29T02:42:19.879Z,977.07
2017-08-29T02:43:29.829Z,977.18
2017-08-29T02:44:40.099Z,977.19
2017-08-29T02:45:50.377Z,977.19
2017-08-29T02:47:00.649Z,977.16
2017-08-29T02:48:10.919Z,977.24
2017-08-29T02:49:21.193Z,977.16
2017-08-29T02:50:31.478Z,977.03
2017-08-29T02:51:41.750Z,977.07
2017-08-29T02:52:51.698Z,976.92
2017-08-29T02:54:01.977Z,976.78
2017-08-29T02:55:11.930Z,976.71
2017-08-29T02:56:22.205Z,976.72
2017-08-29T02:57:32.477Z,976.71
2017-08-29T02:58:42.423Z,976.67
2017-08-29T02:59:52.693Z,976.73
2017-08-29T03:01:02.652Z,976.8
2017-08-29T03:02:12.927Z,976.74
2017-08-29T03:03:23.197Z,976.72
2017-08-29T03:04:33.469Z,976.74
2017-08-29T03:05:43.744Z,976.7
2017-08-29T03:06:54.013Z,976.68
2017-08-29T03:08:04.280Z,976.68
2017-08-29T03:09:14.550Z,976.66
2017-08-29T03:10:24.504Z,976.72
2017-08-29T03:11:34.453Z,976.8
2017-08-29T03:12:44.728Z,976.75
2017-08-29T03:13:54.997Z,976.77
2017-08-29T03:15:05.267Z,976.78
2017-08-29T03:16:15.537Z,976.79
2017-08-29T03:17:25.806Z,976.81
2017-08-29T03:18:36.096Z,976.77
2017-08-29T03:19:46.041Z,976.7
2017-08-29T03:20:56.311Z,976.6
2017-08-29T03:22:06.582Z,976.59
2017-08-29T03:23:16.531Z,976.72
2017-08-29T03:24:26.799Z,976.73
2017-08-29T03:25:37.082Z,976.6
2017-08-29T03:26:47.366Z,976.61
2017-08-29T03:27:57.637Z,976.55
2017-08-29T03:29:07.266Z,976.49
2017-08-29T03:30:17.214Z,976.41
2017-08-29T03:31:27.173Z,976.43
2017-08-29T03:32:37.441Z,976.45
2017-08-29T03:33:47.709Z,976.48
2017-08-29T03:34:57.984Z,976.49
2017-08-29T03:36:08.286Z,976.51
2017-08-29T03:37:18.558Z,976.53
2017-08-29T03:38:28.829Z,976.49
2017-08-29T03:39:39.102Z,976.42
2017-08-29T03:40:49.371Z,976.41
2017-08-29T03:41:59.318Z,976.43
2017-08-29T03:43:08.945Z,976.41
2017-08-29T03:44:19.217Z,976.42
2017-08-29T03:45:29.488Z,976.48
2017-08-29T03:46:39.113Z,976.41
2017-08-29T03:47:49.386Z,976.34
2017-08-29T03:48:59.655Z,976.32
2017-08-29T03:50:08.965Z,976.22
2017-08-29T03:51:18.271Z,976.26
2017-08-29T03:52:28.224Z,976.27
2017-08-29T03:53:38.492Z,976.22
2017-08-29T03:54:48.762Z,976.14
2017-08-29T03:55:59.031Z,976.12
2017-08-29T03:57:09.003Z,976.24
2017-08-29T03:58:18.949Z,976.21
2017-08-29T03:59:28.903Z,976.11
2017-08-29T04:00:39.182Z,976.15
2017-08-29T04:01:49.470Z,976.16
2017-08-29T04:02:59.740Z,976.12
2017-08-29T04:04:10.015Z,976.1
2017-08-29T04:05:20.289Z,976.01
2017-08-29T04:06:30.563Z,975.83
2017-08-29T04:07:40.838Z,975.75
2017-08-29T04:08:51.109Z,975.79
2017-08-29T04:10:01.378Z,975.71
2017-08-29T04:11:11.326Z,975.59
2017-08-29T04:12:21.279Z,975.45
2017-08-29T04:13:31.229Z,975.39
2017-08-29T04:14:41.177Z,975.44
2017-08-29T04:15:51.473Z,975.85
2017-08-29T04:17:01.894Z,976.28
2017-08-29T04:18:12.164Z,976.49
2017-08-29T04:19:22.151Z,976.51
2017-08-29T04:20:32.423Z,976.5
2017-08-29T04:21:42.694Z,976.5
2017-08-29T04:22:52.969Z,976.49
2017-08-29T04:24:03.238Z,976.49
2017-08-29T04:25:13.185Z,976.54
2017-08-29T04:26:23.454Z,976.6
2017-08-29T04:27:33.727Z,976.61
2017-08-29T04:28:43.994Z,976.61
2017-08-29T04:29:54.264Z,976.55
2017-08-29T04:31:04.540Z,976.59
2017-08-29T04:32:14.186Z,976.6
2017-08-29T04:33:24.461Z,976.57
2017-08-29T04:34:34.731Z,976.53
2017-08-29T04:35:45.004Z,976.42
2017-08-29T04:36:54.954Z,976.39
2017-08-29T07:23:32.777Z,976.04
2017-08-29T07:24:43.047Z,975.96
2017-08-29T07:25:53.318Z,975.91
2017-08-29T07:27:03.598Z,975.91
2017-08-29T07:28:13.547Z,975.91
2017-08-29T07:29:23.495Z,975.93
2017-08-29T07:30:33.444Z,975.97
2017-08-29T07:31:43.716Z,975.94
2017-08-29T07:32:54.010Z,975.98
2017-08-29T07:34:03.980Z,975.9
2017-08-29T07:35:13.931Z,975.86
2017-08-29T07:36:24.203Z,975.9
2017-08-29T07:37:34.474Z,975.92
2017-08-29T07:38:44.424Z,976.01
2017-08-29T07:39:54.697Z,976.01
2017-08-29T07:41:04.657Z,976.05
2017-08-29T07:42:14.971Z,976.06
2017-08-29T07:43:25.249Z,976.07
2017-08-29T07:44:35.522Z,976.1
2017-08-29T07:45:45.794Z,976.12
2017-08-29T07:46:55.742Z,976.14
2017-08-29T07:48:06.020Z,976.15
2017-08-29T07:49:16.294Z,976.17
2017-08-29T07:50:25.923Z,976.18
2017-08-29T07:51:35.874Z,976.22
2017-08-29T07:52:45.829Z,976.25
2017-08-29T07:53:55.778Z,976.22
2017-08-29T07:55:05.728Z,976.27
2017-08-29T07:56:15.683Z,976.3
2017-08-29T07:57:25.968Z,976.25
2017-08-29T07:58:36.243Z,976.16
2017-08-29T07:59:46.514Z,976.05
2017-08-29T08:00:56.786Z,975.9
2017-08-29T08:02:07.074Z,975.79
2017-08-29T08:03:17.045Z,975.72
2017-08-29T08:04:27.323Z,975.7
2017-08-29T08:05:37.594Z,975.63
2017-08-29T08:06:47.544Z,975.64
2017-08-29T08:07:57.816Z,975.63
2017-08-29T08:09:08.087Z,975.66
2017-08-29T08:10:18.366Z,975.61
2017-08-29T08:11:28.634Z,975.66
2017-08-29T08:12:38.915Z,975.75
2017-08-29T08:13:48.547Z,975.81
2017-08-29T08:14:58.502Z,975.72
2017-08-29T08:16:08.450Z,975.73
2017-08-29T08:17:18.407Z,975.62
2017-08-29T08:18:28.698Z,975.55
2017-08-29T08:19:38.970Z,975.57
2017-08-29T08:20:49.245Z,975.68
2017-08-29T08:21:59.517Z,975.73
2017-08-29T08:23:09.786Z,975.82
2017-08-29T08:24:19.785Z,975.89
2017-08-29T08:25:29.706Z,975.85
2017-08-29T08:26:39.655Z,975.91
2017-08-29T08:27:49.936Z,975.83
2017-08-29T08:28:59.890Z,975.68
2017-08-29T08:30:10.161Z,975.61
2017-08-29T08:31:20.433Z,975.61
2017-08-29T08:32:30.704Z,975.67
2017-08-29T08:33:40.973Z,975.78
2017-08-29T08:34:51.243Z,975.82
2017-08-29T08:36:01.196Z,975.78
2017-08-29T08:37:11.475Z,975.75
2017-08-29T08:38:21.426Z,975.71
2017-08-29T08:39:31.698Z,975.66
2017-08-29T08:40:41.976Z,975.68
2017-08-29T08:41:52.249Z,975.67
2017-08-29T08:43:02.523Z,975.69
2017-08-29T08:44:12.796Z,975.77
2017-08-29T08:45:23.080Z,975.8
2017-08-29T08:46:33.351Z,975.81
2017-08-29T08:47:43.623Z,975.82
2017-08-29T08:48:53.899Z,975.81
2017-08-29T08:50:04.426Z,975.83
2017-08-29T08:51:14.703Z,975.76
2017-08-29T08:52:24.979Z,975.65
2017-08-29T08:53:35.259Z,975.62
2017-08-29T08:54:45.209Z,975.57
2017-08-29T08:55:55.157Z,975.5
2017-08-29T08:57:05.107Z,975.47
2017-08-29T08:58:15.379Z,975.45
2017-08-29T08:59:25.656Z,975.46
2017-08-29T09:00:35.605Z,975.41
2017-08-29T09:01:45.235Z,975.42
2017-08-29T09:02:55.183Z,975.48
2017-08-29T09:04:05.462Z,975.51
2017-08-29T09:05:15.742Z,975.48
2017-08-29T09:06:26.013Z,975.54
2017-08-29T09:07:36.292Z,975.59
2017-08-29T09:08:46.243Z,975.56
2017-08-29T09:09:56.546Z,975.59
2017-08-29T09:11:06.823Z,975.56
2017-08-29T09:12:17.097Z,975.51
2017-08-29T09:13:27.371Z,975.57
2017-08-29T09:14:37.641Z,975.62
2017-08-29T09:15:47.590Z,975.63
2017-08-29T09:16:57.545Z,975.64
2017-08-29T09:18:07.860Z,975.64
2017-08-29T09:19:18.137Z,975.64
2017-08-29T09:20:28.407Z,975.6
2017-08-29T09:21:38.677Z,975.58
2017-08-29T09:22:48.331Z,975.67
2017-08-29T09:23:58.604Z,975.65
2017-08-29T09:25:08.881Z,975.65
2017-08-29T09:26:19.159Z,975.65
2017-08-29T09:27:29.114Z,975.58
2017-08-29T09:28:38.744Z,975.61
2017-08-29T09:29:49.021Z,975.56
2017-08-29T09:30:58.978Z,975.52
2017-08-29T09:32:08.929Z,975.53
2017-08-29T09:33:18.887Z,975.51
2017-08-29T09:34:29.160Z,975.46
2017-08-29T09:35:39.437Z,975.52
2017-08-29T09:36:49.066Z,975.49
2017-08-29T09:37:59.337Z,975.51
2017-08-29T09:39:09.613Z,975.52
2017-08-29T09:40:19.887Z,975.5
2017-08-29T09:41:29.515Z,975.49
2017-08-29T09:42:39.790Z,975.43
2017-08-29T09:43:49.742Z,975.45
2017-08-29T09:45:00.018Z,975.37
2017-08-29T09:46:09.971Z,975.46
2017-08-29T09:47:19.928Z,975.44
2017-08-29T09:48:30.200Z,975.37
2017-08-29T09:49:40.473Z,975.37
2017-08-29T09:50:50.424Z,975.37
2017-08-29T09:52:00.695Z,975.24
2017-08-29T09:53:10.969Z,975.32
2017-08-29T09:54:20.598Z,975.2
2017-08-29T09:55:30.872Z,975.21
2017-08-29T09:56:41.148Z,975.22
2017-08-29T09:57:51.099Z,975.24
2017-08-29T09:59:01.057Z,975.27
2017-08-29T10:00:11.349Z,975.25
2017-08-29T10:01:21.301Z,975.25
2017-08-29T10:02:31.582Z,975.22
2017-08-29T10:03:41.853Z,975.22
2017-08-29T10:04:51.803Z,975.2
2017-08-29T10:06:02.077Z,975.35
2017-08-29T10:07:12.348Z,975.4
2017-08-29T10:08:22.620Z,975.43
2017-08-29T10:09:32.894Z,975.43
2017-08-29T10:10:43.169Z,975.4
2017-08-29T10:11:53.118Z,975.37
2017-08-29T10:13:03.390Z,975.4
2017-08-29T10:14:13.668Z,975.45
2017-08-29T10:15:23.940Z,975.4
2017-08-29T10:16:33.890Z,975.42
2017-08-29T10:17:44.163Z,975.42
2017-08-29T10:18:54.440Z,975.35
2017-08-29T10:20:04.392Z,975.36
2017-08-29T10:21:14.668Z,975.43
2017-08-29T10:22:24.941Z,975.38
2017-08-29T10:23:35.220Z,975.32
2017-08-29T10:24:45.178Z,975.33
2017-08-29T10:25:55.131Z,975.35
2017-08-29T10:27:05.412Z,975.4
2017-08-29T10:28:15.688Z,975.42
2017-08-29T10:29:25.640Z,975.43
2017-08-29T10:30:35.914Z,975.43
2017-08-29T10:31:46.189Z,975.47
2017-08-29T10:32:56.460Z,975.41
2017-08-29T10:34:06.758Z,975.39
2017-08-29T10:35:16.727Z,975.39
2017-08-29T10:36:26.679Z,975.37
2017-08-29T10:37:36.957Z,975.41
2017-08-29T10:38:47.230Z,975.4
2017-08-29T10:39:57.501Z,975.35
2017-08-29T10:41:07.455Z,975.31
2017-08-29T10:42:17.726Z,975.29
2017-08-29T10:43:28.002Z,975.34
2017-08-29T10:44:38.273Z,975.34
2017-08-29T10:45:48.553Z,975.28
2017-08-29T10:46:58.184Z,975.25
2017-08-29T10:48:08.456Z,975.29
2017-08-29T10:49:18.409Z,975.29
2017-08-29T10:50:28.685Z,975.21
2017-08-29T10:51:38.959Z,975.2
2017-08-29T10:52:48.910Z,975.19
2017-08-29T10:53:59.182Z,975.21
2017-08-29T10:55:09.453Z,975.21
2017-08-29T10:56:19.084Z,975.21
2017-08-29T10:57:29.358Z,975.19
2017-08-29T10:58:39.631Z,975.14
2017-08-29T10:59:49.903Z,975.18
2017-08-29T11:01:00.186Z,975.12
2017-08-29T11:02:09.817Z,975.12
2017-08-29T11:03:20.093Z,975.13
2017-08-29T11:04:30.047Z,975.2
2017-08-29T11:05:40.007Z,975.17
2017-08-29T11:06:50.281Z,975.2
2017-08-29T11:07:59.920Z,975.19
2017-08-29T11:09:10.193Z,975.17
2017-08-29T11:10:20.481Z,975.2
2017-08-29T11:11:30.435Z,975.2
2017-08-29T11:12:40.736Z,975.2
2017-08-29T11:13:50.689Z,975.14
2017-08-29T11:15:00.963Z,975.12
2017-08-29T11:16:11.239Z,975.15
2017-08-29T11:17:21.191Z,975.15
2017-08-29T11:18:31.144Z,975.1
2017-08-29T11:19:41.416Z,975.04
2017-08-29T11:20:51.688Z,975.07
2017-08-29T11:22:01.647Z,975.15
2017-08-29T11:23:11.600Z,975.09
2017-08-29T11:24:21.876Z,975.06
2017-08-29T11:25:32.154Z,975.08
2017-08-29T11:26:42.427Z,975.01
2017-08-29T11:27:52.701Z,975.05
2017-08-29T11:29:02.657Z,975.05
2017-08-29T11:30:12.940Z,975.07
2017-08-29T11:31:23.214Z,975.08
2017-08-29T11:32:33.170Z,975.04
2017-08-29T11:33:43.444Z,975.05
2017-08-29T11:34:53.262Z,975.04
2017-08-29T11:36:03.991Z,975.07
2017-08-29T11:37:13.633Z,975.05
2017-08-29T11:38:23.589Z,975.03
2017-08-29T11:39:33.879Z,975.12
2017-08-29T11:40:43.845Z,975.12
2017-08-29T11:41:53.798Z,974.99
2017-08-29T11:43:04.071Z,974.99
2017-08-29T11:44:14.025Z,974.99
2017-08-29T11:45:24.298Z,975.02
2017-08-29T11:46:34.573Z,975.03
2017-08-29T11:47:44.543Z,975.03
2017-08-29T11:48:54.817Z,975
2017-08-29T11:50:04.771Z,975.02
2017-08-29T11:51:14.724Z,975
2017-08-29T11:52:24.680Z,974.98
2017-08-29T11:53:34.310Z,974.98
2017-08-29T11:54:44.585Z,974.93
2017-08-29T11:55:54.911Z,974.92
2017-08-29T11:57:04.880Z,974.89
2017-08-29T11:58:15.153Z,974.87
2017-08-29T11:59:25.429Z,974.88
2017-08-29T12:00:35.061Z,974.84
2017-08-29T12:01:45.343Z,974.86
2017-08-29T12:02:55.654Z,974.83
2017-08-29T12:04:05.950Z,974.85
2017-08-29T12:05:16.240Z,974.83
2017-08-29T12:06:26.519Z,974.81
2017-08-29T12:07:36.793Z,974.81
2017-08-29T12:08:46.743Z,974.76
2017-08-29T12:09:57.020Z,974.73
2017-08-29T12:11:07.301Z,974.7
2017-08-29T12:12:17.576Z,974.66
2017-08-29T12:13:27.529Z,974.66
2017-08-29T12:14:37.479Z,974.67
2017-08-29T12:15:47.437Z,974.67
2017-08-29T12:16:57.711Z,974.6
2017-08-29T12:18:07.983Z,974.55
2017-08-29T12:19:18.263Z,974.5
2017-08-29T12:20:28.544Z,974.49
2017-08-29T12:21:38.819Z,974.52
2017-08-29T12:22:49.092Z,974.56
2017-08-29T12:23:59.364Z,974.63
2017-08-29T12:25:09.331Z,974.65
2017-08-29T12:26:19.615Z,974.67
2017-08-29T12:27:29.576Z,974.66
2017-08-29T12:28:39.852Z,974.63
2017-08-29T12:29:50.125Z,974.69
2017-08-29T12:31:00.443Z,974.7
2017-08-29T12:32:11.002Z,974.7
2017-08-29T12:33:20.958Z,974.67
2017-08-29T12:34:31.237Z,974.62
2017-08-29T12:35:41.554Z,974.61
2017-08-29T12:36:50.863Z,974.6
2017-08-29T12:38:01.136Z,974.48
2017-08-29T12:39:10.806Z,974.53
2017-08-29T12:40:21.078Z,974.49
2017-08-29T12:41:31.351Z,974.46
2017-08-29T12:42:41.309Z,974.43
2017-08-29T12:43:51.262Z,974.4
2017-08-29T12:45:01.213Z,974.4
2017-08-29T12:46:11.166Z,974.39
2017-08-29T12:47:21.118Z,974.36
2017-08-29T12:48:31.400Z,974.32
2017-08-29T12:49:41.351Z,974.39
2017-08-29T12:50:51.629Z,974.37
2017-08-29T12:52:01.587Z,974.31
2017-08-29T12:53:11.861Z,974.38
2017-08-29T12:54:22.133Z,974.37
2017-08-29T12:55:31.763Z,974.36
2017-08-29T12:56:42.035Z,974.3
2017-08-29T12:57:52.311Z,974.29
2017-08-29T12:59:02.586Z,974.29
2017-08-29T13:00:12.869Z,974.29
2017-08-29T13:01:22.835Z,974.33
2017-08-29T13:02:32.787Z,974.32
2017-08-29T13:03:42.738Z,974.27
2017-08-29T13:04:52.690Z,974.28
2017-08-29T13:06:02.641Z,974.23
2017-08-29T13:07:12.924Z,974.21
2017-08-29T13:08:23.202Z,974.26
2017-08-29T13:09:33.483Z,974.22
2017-08-29T13:10:43.464Z,974.2
2017-08-29T13:11:53.741Z,974.14
2017-08-29T13:13:04.022Z,974.12
2017-08-29T13:14:13.971Z,974.02
2017-08-29T13:15:24.247Z,973.97
2017-08-29T13:16:34.202Z,973.96
2017-08-29T13:17:44.152Z,974
2017-08-29T13:18:54.439Z,974.02
2017-08-29T13:20:04.722Z,974.09
2017-08-29T13:21:14.672Z,974.07
2017-08-29T13:22:24.944Z,974.01
2017-08-29T13:23:34.896Z,974.01
2017-08-29T13:24:45.172Z,973.95
2017-08-29T13:25:55.443Z,973.89
2017-08-29T13:27:05.721Z,973.88
2017-08-29T13:28:15.676Z,973.89
2017-08-29T13:29:25.627Z,973.87
2017-08-29T13:30:35.904Z,973.81
2017-08-29T13:31:46.185Z,973.79
2017-08-29T13:32:56.143Z,973.79
2017-08-29T13:34:05.785Z,973.83
2017-08-29T13:35:16.055Z,973.98
2017-08-29T13:36:26.006Z,974.05
2017-08-29T13:37:35.957Z,973.99
2017-08-29T13:38:45.907Z,974
2017-08-29T13:39:56.179Z,974.05
2017-08-29T13:41:05.807Z,974
2017-08-29T13:42:15.760Z,973.93
2017-08-29T13:43:25.714Z,973.86
2017-08-29T13:44:35.985Z,973.79
2017-08-29T13:45:45.935Z,973.71
2017-08-29T13:46:55.885Z,973.69
2017-08-29T13:48:05.836Z,973.62
2017-08-29T13:49:16.148Z,973.56
2017-08-29T13:50:26.418Z,973.51
2017-08-29T13:51:36.689Z,973.49
2017-08-29T13:52:46.993Z,973.65
2017-08-29T13:53:56.938Z,973.92
2017-08-29T13:55:07.212Z,974.01
2017-08-29T13:56:17.162Z,973.92
2017-08-29T13:57:26.793Z,973.89
2017-08-29T13:58:37.079Z,973.86
2017-08-29T13:59:47.030Z,973.86
2017-08-29T14:00:57.300Z,973.9
2017-08-29T14:02:07.576Z,973.87
2017-08-29T14:03:17.533Z,973.9
2017-08-29T14:04:27.482Z,973.87
2017-08-29T14:05:37.754Z,973.9
2017-08-29T14:06:47.385Z,973.89
2017-08-29T14:07:57.334Z,973.88
2017-08-29T14:09:07.607Z,973.9
2017-08-29T14:10:17.560Z,973.89
2017-08-29T14:11:27.512Z,973.91
2017-08-29T14:12:37.462Z,973.97
2017-08-29T14:13:47.732Z,973.96
2017-08-29T14:14:57.362Z,973.99
2017-08-29T14:16:06.992Z,974.03
2017-08-29T14:17:17.270Z,974.05
2017-08-29T14:18:27.224Z,974.05
2017-08-29T14:19:36.852Z,974.02
2017-08-29T14:20:47.124Z,974.03
2017-08-29T14:21:57.399Z,973.99
2017-08-29T14:23:07.349Z,974.04
2017-08-29T14:24:17.623Z,974.06
2017-08-29T14:25:27.896Z,974.03
2017-08-29T14:26:38.173Z,974.02
2017-08-29T14:27:48.455Z,974.01
2017-08-29T14:28:58.727Z,974
2017-08-29T14:30:09.004Z,974.03
2017-08-29T14:31:19.277Z,974.04
2017-08-29T14:32:29.558Z,974.07
2017-08-29T14:33:39.830Z,974.12
2017-08-29T14:34:49.780Z,974.17
2017-08-29T14:36:00.058Z,974.17
2017-08-29T14:37:10.343Z,974.2
2017-08-29T14:38:20.614Z,974.14
2017-08-29T14:39:30.565Z,974.11
2017-08-29T14:40:40.515Z,974.02
2017-08-29T14:41:50.786Z,973.99
2017-08-29T14:43:01.056Z,973.98
2017-08-29T14:44:11.011Z,973.97
2017-08-29T14:45:20.960Z,973.92
2017-08-29T14:46:31.229Z,973.94
2017-08-29T14:47:41.513Z,973.92
2017-08-29T14:48:51.466Z,973.9
2017-08-29T14:50:01.419Z,973.84
2017-08-29T14:51:11.693Z,973.86
2017-08-29T14:52:21.963Z,973.84
2017-08-29T14:53:31.915Z,973.87
2017-08-29T14:54:42.196Z,973.95
2017-08-29T14:55:52.487Z,973.95
2017-08-29T14:57:02.441Z,973.93
2017-08-29T14:58:12.718Z,973.95
2017-08-29T14:59:22.999Z,973.86
2017-08-29T15:00:32.954Z,973.81
2017-08-29T15:01:42.905Z,973.81
2017-08-29T15:02:52.854Z,973.81
2017-08-29T15:04:03.136Z,973.8
2017-08-29T15:05:13.410Z,973.83
2017-08-29T15:06:23.361Z,973.82
2017-08-29T15:07:33.643Z,973.81
2017-08-29T15:08:43.592Z,973.78
2017-08-29T15:09:53.863Z,973.8
2017-08-29T15:11:04.145Z,973.72
2017-08-29T15:12:14.415Z,973.7
2017-08-29T15:13:24.684Z,973.71
2017-08-29T15:14:34.633Z,973.71
2017-08-29T15:15:44.904Z,973.68
2017-08-29T15:16:55.175Z,973.67
2017-08-29T15:18:05.481Z,973.7
2017-08-29T15:19:15.750Z,973.63
2017-08-29T15:20:26.025Z,973.64
2017-08-29T15:21:36.299Z,973.57
2017-08-29T15:22:46.577Z,973.53
2017-08-29T15:23:56.847Z,973.53
2017-08-29T15:25:06.153Z,973.55
2017-08-29T15:26:16.103Z,973.57
2017-08-29T15:27:26.382Z,973.56
2017-08-29T15:28:36.334Z,973.56
2017-08-29T15:29:46.284Z,973.54
2017-08-29T15:30:56.237Z,973.51
2017-08-29T15:32:06.514Z,973.52
2017-08-29T15:33:18.567Z,973.52
2017-08-29T15:34:28.839Z,973.51
2017-08-29T15:35:39.118Z,973.49
2017-08-29T15:36:48.743Z,973.42
2017-08-29T15:37:59.014Z,973.43
2017-08-29T15:39:09.284Z,973.45
2017-08-29T15:40:19.565Z,973.49
2017-08-29T15:41:29.840Z,973.52
2017-08-29T15:42:39.789Z,973.57
2017-08-29T15:43:50.061Z,973.63
2017-08-29T15:45:00.017Z,973.54
2017-08-29T15:46:09.980Z,973.48
2017-08-29T15:47:19.934Z,973.42
2017-08-29T15:48:29.563Z,973.54
2017-08-29T15:49:39.836Z,973.62
2017-08-29T15:50:50.119Z,973.65
2017-08-29T15:52:00.392Z,973.58
2017-08-29T15:53:10.343Z,973.56
2017-08-29T15:54:20.299Z,973.53
2017-08-29T15:55:30.248Z,973.55
2017-08-29T15:56:39.553Z,973.49
2017-08-29T15:57:49.825Z,973.47
2017-08-29T15:59:00.095Z,973.47
2017-08-29T16:00:10.044Z,973.46
2017-08-29T16:01:19.994Z,973.44
2017-08-29T16:02:30.262Z,973.53
2017-08-29T16:03:40.533Z,973.58
2017-08-29T16:04:50.487Z,973.6
2017-08-29T16:06:00.762Z,973.61
2017-08-29T16:07:10.719Z,973.59
2017-08-29T16:08:20.988Z,973.66
2017-08-29T16:09:30.614Z,973.62
2017-08-29T16:10:40.893Z,973.67
2017-08-29T16:11:51.162Z,973.65
2017-08-29T16:13:01.112Z,973.64
2017-08-29T16:14:11.063Z,973.6
2017-08-29T16:15:21.338Z,973.61
2017-08-29T16:16:31.609Z,973.66
2017-08-29T16:17:41.562Z,973.66
2017-08-29T16:18:51.831Z,973.68
2017-08-29T16:20:02.104Z,973.64
2017-08-29T16:21:12.379Z,973.61
2017-08-29T16:22:22.327Z,973.58
2017-08-29T16:23:32.598Z,973.52
2017-08-29T16:24:42.230Z,973.51
2017-08-29T16:25:52.178Z,973.55
2017-08-29T16:27:02.447Z,973.57
2017-08-29T16:28:12.407Z,973.61
2017-08-29T16:29:22.704Z,973.62
2017-08-29T16:30:33.001Z,973.65
2017-08-29T16:31:42.985Z,973.73
2017-08-29T16:32:53.262Z,973.73
2017-08-29T16:34:02.896Z,973.73
2017-08-29T16:35:12.847Z,973.73
2017-08-29T16:36:22.794Z,973.76
2017-08-29T16:37:35.072Z,973.73
2017-08-29T16:38:45.343Z,973.66
2017-08-29T16:39:55.624Z,973.68
2017-08-29T16:41:05.578Z,973.6
2017-08-29T16:42:15.849Z,973.67
2017-08-29T16:43:25.802Z,973.71
2017-08-29T16:44:35.751Z,973.7
2017-08-29T16:45:45.076Z,973.67
2017-08-29T16:46:55.346Z,973.64
2017-08-29T16:48:05.295Z,973.59
2017-08-29T16:49:15.247Z,973.58
2017-08-29T16:50:25.518Z,973.54
2017-08-29T16:51:35.147Z,973.5
2017-08-29T16:52:45.418Z,973.49
2017-08-29T16:53:55.689Z,973.58
2017-08-29T16:55:05.650Z,973.54
2017-08-29T16:56:15.282Z,973.52
2017-08-29T16:57:25.552Z,973.49
2017-08-29T16:58:35.184Z,973.39
2017-08-29T16:59:45.138Z,973.44
2017-08-29T17:00:55.428Z,973.38
2017-08-29T17:02:05.379Z,973.42
2017-08-29T17:03:15.329Z,973.41
2017-08-29T17:04:25.602Z,973.46
2017-08-29T17:05:35.230Z,973.43
2017-08-29T17:06:45.504Z,973.39
2017-08-29T17:07:55.452Z,973.36
2017-08-29T17:09:05.728Z,973.31
2017-08-29T17:10:15.689Z,973.36
2017-08-29T17:11:25.647Z,973.38
2017-08-29T17:12:35.929Z,973.35
2017-08-29T17:13:45.235Z,973.38
2017-08-29T17:14:55.506Z,973.33
2017-08-29T17:16:05.785Z,973.36
2017-08-29T17:17:15.739Z,973.4
2017-08-29T17:18:26.011Z,973.4
2017-08-29T17:19:35.959Z,973.42
2017-08-29T17:20:45.909Z,973.41
2017-08-29T17:21:56.179Z,973.44
2017-08-29T17:23:06.132Z,973.44
2017-08-29T17:24:16.082Z,973.42